LET weather

Alfredo Vásquez Cobo International Airport
Leticia, Amazonas Department, Colombia

Public forecast

Using degrees Celsius for public forecast. Weather courtesy of forecast.io.

METAR (pilot weather report)

Retrieved 2019/01/23 11:05 UTC (7 minutes ago):

SKLT 231105Z VRB02KT 2000 +RA OVC007 24/24 A2993

TAF (pilot weather forecast)

Forecast is more than 12 hours old.

Retrieved 2019/01/10 06:38 UTC (13 days ago):

TAF SKLT 100500Z 1006/1106 VRB02KT 9999 SCT013 SCT080 TEMPO 1006/1008 7000 VCFG RA BKN012 TEMPO 1008/1013 3000 BR DZ SCT007 PROB40 1010/1012 0700 SCT003 BECMG 1014/1016 06006KT PROB40 TEMPO 1019/1023 7000 RA SCT015CB TX30/1018Z TN21/1011Z